Aérodrome :
LOGIN :

S'inscrire | Disclaimer

   EN    FR    IT 

 










Légende :    VFR   VFR Marginal   IFR   IFR Intensif   IFR Très Intensif
Visi : 
Plafond : 
>= 8 km
>= 3000ft
5 à 8 km
1000 à 3000 ft
1500m à 5 km
500 à 1000 ft
800 à 1500m
200 à 500 ft
< 800m
< 200 ft
Symboles :   Orages  Brouillard  Fortes neiges  Fortes précipitations  Vent > 20 kt
SIGMETs :   Divers  Orages  Givrage  Turbulence  Onde Orograph.  Cendres Volcan.






- Altitude de l'aérodrome : 52 ft
- Code IATA : RNN


EKRN - Bornholm Ronne

DERNIER METAR :
  • 171150Z AUTO 24023KT 9999 NCD 08/03 Q1005

METARs EXPIRÉS :
  • 171120Z AUTO 24027KT 9999 NCD 08/03 Q1005
  • 171050Z AUTO 24027KT 9999 FEW048/// 08/03 Q1005
  • 171020Z AUTO 25028KT 9999 SCT047/// 08/03 Q1005
  • 170950Z AUTO 24025G35KT 9999 FEW048/// 07/03 Q1005
  • 170920Z AUTO 24027KT 9999 FEW044/// 07/04 Q1004

TAF TAF EKRN
Valide du 17 à 12h jusqu'au 17 à 21h UTC


171101Z 1712/1721 24022KT 9999 SCT030
TEMPO 1712/1716 24025G35KT FEW020CB
TEMPO 1716/1721 24020G30KT SHRA SCT020CB



MET'MAP, la Météo Aéronautique d'un coup d'oeil ! - Copyright ORBIFLY Décembre 2007 - Disclaimer

ORBIFLY MET'MAP TEAM :

Programmation & Développement : Alexandra Zaïnal
Sur une idée originale de : Baudouin d'Aumeries
Assistance à la programmation : Marc-Olivier Méhu
Soutien technique & logistique : Manuel Goepfert

Contact : metmap@orbifly.com




SOURCES & CREDITS :

   NOAA